createdAt,value
2018-08-06T00:00:25.681Z,3.17
2018-08-06T00:02:53.952Z,3.87
2018-08-06T00:05:22.230Z,2.98
2018-08-06T00:07:50.603Z,3.17
2018-08-06T00:10:20.806Z,3.50
2018-08-06T00:12:49.483Z,3.90
2018-08-06T00:15:18.144Z,3.30
2018-08-06T00:17:46.742Z,4.10
2018-08-06T00:20:15.947Z,3.67
2018-08-06T00:22:44.691Z,4.20
2018-08-06T00:25:14.167Z,4.85
2018-08-06T00:27:42.986Z,3.80
2018-08-06T00:30:12.118Z,3.85
2018-08-06T00:32:41.721Z,3.80
2018-08-06T00:35:10.934Z,4.22
2018-08-06T00:37:39.803Z,4.10
2018-08-06T00:40:12.865Z,4.28
2018-08-06T00:42:42.237Z,3.33
2018-08-06T00:45:12.676Z,3.45
2018-08-06T00:47:40.924Z,4.17
2018-08-06T00:50:09.930Z,3.52
2018-08-06T00:52:38.650Z,3.83
2018-08-06T00:55:15.143Z,3.87
2018-08-06T00:57:43.757Z,3.60
2018-08-06T01:00:14.428Z,3.77
2018-08-06T01:02:43.020Z,3.95
2018-08-06T01:05:12.780Z,4.30
2018-08-06T01:07:41.908Z,3.83
2018-08-06T01:10:10.845Z,5.00
2018-08-06T01:12:40.148Z,3.83
2018-08-06T01:15:10.182Z,3.50
2018-08-06T01:17:38.815Z,3.58
2018-08-06T01:20:09.227Z,4.12
2018-08-06T01:22:37.556Z,4.20
2018-08-06T01:25:06.715Z,4.00
2018-08-06T01:27:35.683Z,4.03
2018-08-06T01:30:04.998Z,3.25
2018-08-06T01:32:33.247Z,2.95
2018-08-06T01:35:01.857Z,2.47
2018-08-06T01:37:30.168Z,2.70
2018-08-06T01:39:58.765Z,2.45
2018-08-06T01:42:27.357Z,2.52
2018-08-06T01:44:56.026Z,2.15
2018-08-06T01:47:24.628Z,2.67
2018-08-06T01:49:53.260Z,2.98
2018-08-06T01:52:21.588Z,3.05
2018-08-06T01:54:50.211Z,2.70
2018-08-06T01:57:18.482Z,2.75
2018-08-06T01:59:47.102Z,2.65
2018-08-06T02:02:15.707Z,2.10
2018-08-06T02:04:44.348Z,2.52
2018-08-06T02:07:12.983Z,2.40
2018-08-06T02:09:41.619Z,3.22
2018-08-06T02:12:09.903Z,2.35
2018-08-06T02:14:38.229Z,2.60
2018-08-06T02:17:07.422Z,2.15
2018-08-06T02:19:35.694Z,2.10
2018-08-06T02:22:04.350Z,2.60
2018-08-06T02:24:32.927Z,2.25
2018-08-06T02:27:01.539Z,2.87
2018-08-06T02:29:30.184Z,2.52
2018-08-06T02:31:58.469Z,2.35
2018-08-06T02:34:26.741Z,2.60
2018-08-06T02:36:55.032Z,2.98
2018-08-06T02:39:23.610Z,2.95
2018-08-06T02:41:52.223Z,3.08
2018-08-06T02:44:20.827Z,2.55
2018-08-06T02:46:49.451Z,2.80
2018-08-06T02:49:17.700Z,3.40
2018-08-06T02:51:46.339Z,3.33
2018-08-06T02:54:14.911Z,3.05
2018-08-06T02:56:43.532Z,2.62
2018-08-06T02:59:12.210Z,2.15
2018-08-06T03:01:40.852Z,1.92
2018-08-06T03:04:09.460Z,2.70
2018-08-06T03:06:38.105Z,1.90
2018-08-06T03:09:09.513Z,1.83
2018-08-06T03:11:38.232Z,2.47
2018-08-06T03:14:06.920Z,2.17
2018-08-06T03:16:35.559Z,3.05
2018-08-06T03:19:04.287Z,3.67
2018-08-06T03:21:32.928Z,2.98
2018-08-06T03:24:01.538Z,3.25
2018-08-06T03:26:30.183Z,3.00
2018-08-06T03:28:58.753Z,3.30
2018-08-06T03:31:27.016Z,3.65
2018-08-06T03:33:55.760Z,3.17
2018-08-06T03:36:24.370Z,3.62
2018-08-06T03:38:52.969Z,3.00
2018-08-06T03:41:21.579Z,2.83
2018-08-06T03:43:49.863Z,2.83
2018-08-06T03:46:18.551Z,2.92
2018-08-06T03:48:47.171Z,3.52
2018-08-06T03:51:15.797Z,3.63
2018-08-06T03:53:44.058Z,4.03
2018-08-06T03:56:12.647Z,3.80
2018-08-06T03:58:41.069Z,3.77
2018-08-06T04:01:09.716Z,3.73
2018-08-06T04:03:38.022Z,3.10
2018-08-06T04:06:06.285Z,3.42
2018-08-06T04:08:34.548Z,3.43
2018-08-06T04:11:03.143Z,3.50
2018-08-06T04:13:31.515Z,3.60
2018-08-06T04:16:00.045Z,3.52
2018-08-06T04:18:28.687Z,3.73
2018-08-06T04:20:56.983Z,4.08
2018-08-06T04:23:25.628Z,4.47
2018-08-06T04:25:54.413Z,4.23
2018-08-06T04:28:23.086Z,4.95
2018-08-06T04:30:51.712Z,5.00
2018-08-06T04:33:19.945Z,4.03
2018-08-06T04:35:48.614Z,3.67
2018-08-06T04:38:17.244Z,4.57
2018-08-06T04:40:45.512Z,4.47
2018-08-06T04:43:14.168Z,4.10
2018-08-06T04:45:42.771Z,4.30
2018-08-06T04:48:11.372Z,4.47
2018-08-06T04:50:40.019Z,6.07
2018-08-06T04:53:08.638Z,6.70
2018-08-06T04:55:37.299Z,6.22
2018-08-06T04:58:06.157Z,6.85
2018-08-06T05:00:34.758Z,9.27
2018-08-06T05:03:03.356Z,8.13
2018-08-06T05:05:32.011Z,7.97
2018-08-06T05:08:00.638Z,10.50
2018-08-06T05:10:29.322Z,8.68
2018-08-06T05:12:57.946Z,9.57
2018-08-06T05:15:26.585Z,8.15
2018-08-06T05:17:55.253Z,7.72
2018-08-06T05:20:23.883Z,7.87
2018-08-06T05:22:52.119Z,8.35
2018-08-06T05:25:20.752Z,7.75
2018-08-06T05:27:49.053Z,7.75
2018-08-06T05:30:17.738Z,8.20
2018-08-06T05:32:45.944Z,7.35
2018-08-06T05:35:14.574Z,7.73
2018-08-06T05:37:42.849Z,7.17
2018-08-06T05:40:11.117Z,7.12
2018-08-06T05:42:39.448Z,7.47
2018-08-06T05:45:09.093Z,7.28
2018-08-06T05:47:38.011Z,7.55
2018-08-06T05:50:07.837Z,8.73
2018-08-06T05:52:36.394Z,8.48
2018-08-06T05:55:05.118Z,7.05
2018-08-06T05:57:33.795Z,6.72
2018-08-06T06:00:02.379Z,6.87
2018-08-06T06:02:30.981Z,6.80
2018-08-06T06:04:59.638Z,7.37
2018-08-06T06:07:27.958Z,6.87
2018-08-06T06:09:56.618Z,6.95
2018-08-06T06:12:25.247Z,7.10
2018-08-06T06:14:53.886Z,6.95
2018-08-06T06:17:22.527Z,6.83
2018-08-06T06:19:51.304Z,7.35
2018-08-06T06:22:19.939Z,7.10
2018-08-06T06:24:48.601Z,7.07
2018-08-06T06:27:16.921Z,6.42
2018-08-06T06:29:45.608Z,6.45
2018-08-06T06:32:14.242Z,7.28
2018-08-06T06:34:42.914Z,6.87
2018-08-06T06:37:11.530Z,8.50
2018-08-06T06:39:39.833Z,6.08
2018-08-06T06:42:08.488Z,6.62
2018-08-06T06:44:37.119Z,6.42
2018-08-06T06:47:05.906Z,5.08
2018-08-06T06:49:34.600Z,5.65
2018-08-06T06:52:03.254Z,6.00
2018-08-06T06:54:31.997Z,4.92
2018-08-06T06:57:00.543Z,5.50
2018-08-06T06:59:29.156Z,4.87
2018-08-06T07:01:57.834Z,4.58
2018-08-06T07:04:26.502Z,5.87
2018-08-06T07:06:55.142Z,4.72
2018-08-06T07:09:23.400Z,5.00
2018-08-06T07:11:52.142Z,4.55
2018-08-06T07:14:20.389Z,5.10
2018-08-06T07:16:48.829Z,4.50
2018-08-06T07:19:17.574Z,4.30
2018-08-06T07:21:46.212Z,4.30
2018-08-06T07:24:14.828Z,4.53
2018-08-06T07:26:43.485Z,3.87
2018-08-06T07:29:12.128Z,4.75
2018-08-06T07:31:40.789Z,3.65
2018-08-06T07:34:09.103Z,4.87
2018-08-06T07:36:37.720Z,5.37
2018-08-06T07:39:08.840Z,4.53
2018-08-06T07:41:37.530Z,4.37
2018-08-06T07:44:06.244Z,4.67
2018-08-06T07:46:34.815Z,4.87
2018-08-06T07:49:03.490Z,4.37
2018-08-06T07:51:32.138Z,3.58
2018-08-06T07:54:00.759Z,4.37
2018-08-06T07:56:29.431Z,3.45
2018-08-06T07:58:58.026Z,3.85
2018-08-06T08:01:26.791Z,2.75
2018-08-06T08:03:55.480Z,3.30
2018-08-06T08:06:24.167Z,3.27
2018-08-06T08:08:52.695Z,2.55
2018-08-06T08:11:21.043Z,2.50
2018-08-06T08:13:49.673Z,2.20
2018-08-06T08:16:17.957Z,2.75
2018-08-06T08:18:46.693Z,1.82
2018-08-06T08:21:15.390Z,2.22
2018-08-06T08:23:44.094Z,2.83
2018-08-06T08:26:12.453Z,1.90
2018-08-06T08:28:41.139Z,1.80
2018-08-06T08:31:09.781Z,1.80
2018-08-06T08:33:38.462Z,2.15
2018-08-06T08:36:07.278Z,2.45
2018-08-06T08:38:35.904Z,1.90
2018-08-06T08:41:04.617Z,1.60
2018-08-06T08:43:33.231Z,1.75
2018-08-06T08:46:01.861Z,1.52
2018-08-06T08:48:30.542Z,1.75
2018-08-06T08:50:59.170Z,1.70
2018-08-06T08:53:27.885Z,1.75
2018-08-06T08:55:56.551Z,1.72
2018-08-06T08:58:25.235Z,1.40
2018-08-06T09:00:56.412Z,1.40
2018-08-06T09:03:25.080Z,1.37
2018-08-06T09:05:53.828Z,1.62
2018-08-06T09:08:22.543Z,2.00
2018-08-06T09:10:50.851Z,2.58
2018-08-06T09:13:19.484Z,1.72
2018-08-06T09:15:48.121Z,1.62
2018-08-06T09:18:16.894Z,2.05
2018-08-06T09:20:45.546Z,2.20
2018-08-06T09:23:14.147Z,1.87
2018-08-06T09:25:42.835Z,1.75
2018-08-06T09:28:11.439Z,1.80
2018-08-06T09:30:40.062Z,2.10
2018-08-06T09:33:08.718Z,2.00
2018-08-06T09:35:37.344Z,2.37
2018-08-06T09:38:06.176Z,1.92
2018-08-06T09:40:34.901Z,1.80
2018-08-06T09:43:03.499Z,2.33
2018-08-06T09:45:31.783Z,1.80
2018-08-06T09:48:00.458Z,1.70
2018-08-06T09:50:29.080Z,1.67
2018-08-06T09:52:57.741Z,1.90
2018-08-06T09:55:29.599Z,1.57
2018-08-06T09:57:58.209Z,1.70
2018-08-06T10:01:01.207Z,2.17
2018-08-06T10:03:29.815Z,1.65
2018-08-06T10:05:58.638Z,1.52
2018-08-06T10:08:26.918Z,1.80
2018-08-06T10:10:55.551Z,1.75
2018-08-06T10:13:24.194Z,1.62
2018-08-06T10:15:52.868Z,1.75
2018-08-06T10:18:21.149Z,1.75
2018-08-06T10:20:49.432Z,1.65
2018-08-06T10:23:17.766Z,1.67
2018-08-06T10:25:46.380Z,1.67
2018-08-06T10:28:14.715Z,1.67
2018-08-06T10:30:43.440Z,1.55
2018-08-06T10:33:12.033Z,1.57
2018-08-06T10:35:40.326Z,1.50
2018-08-06T10:38:08.995Z,1.70
2018-08-06T10:40:37.263Z,1.70
2018-08-06T10:43:05.522Z,1.52
2018-08-06T10:45:34.190Z,1.65
2018-08-06T10:48:02.828Z,1.65
2018-08-06T10:50:31.072Z,1.45
2018-08-06T10:52:59.765Z,1.40
2018-08-06T10:55:28.104Z,1.40
2018-08-06T10:57:56.705Z,1.62
2018-08-06T11:00:25.341Z,1.63
2018-08-06T11:02:53.974Z,1.42
2018-08-06T11:05:22.631Z,1.57
2018-08-06T11:07:51.278Z,1.40
2018-08-06T11:10:21.140Z,1.57
2018-08-06T11:12:49.777Z,1.70
2018-08-06T11:15:22.478Z,1.60
2018-08-06T11:17:51.129Z,1.65
2018-08-06T11:20:20.142Z,1.25
2018-08-06T11:22:48.757Z,2.12
2018-08-06T11:25:19.288Z,1.25
2018-08-06T11:27:48.104Z,1.72
2018-08-06T11:30:18.675Z,1.20
2018-08-06T11:32:47.424Z,1.50
2018-08-06T11:35:16.492Z,1.40
2018-08-06T11:37:45.157Z,1.50
2018-08-06T11:40:14.860Z,1.20
2018-08-06T11:42:44.197Z,1.45
2018-08-06T11:45:14.985Z,1.50
2018-08-06T11:47:43.266Z,1.55
2018-08-06T11:50:11.947Z,1.20
2018-08-06T11:52:40.340Z,1.30
2018-08-06T11:55:09.463Z,1.52
2018-08-06T11:57:38.096Z,1.20
2018-08-06T12:00:12.457Z,1.30
2018-08-06T12:02:41.062Z,1.40
2018-08-06T12:05:09.781Z,1.15
2018-08-06T12:07:38.678Z,1.10
2018-08-06T12:10:08.323Z,1.30
2018-08-06T12:12:36.976Z,1.07
2018-08-06T12:15:06.806Z,1.42
2018-08-06T12:17:35.391Z,1.50
2018-08-06T12:20:06.200Z,1.50
2018-08-06T12:22:34.535Z,1.22
2018-08-06T12:25:03.201Z,1.20
2018-08-06T12:27:31.850Z,1.20
2018-08-06T12:30:00.584Z,2.20
2018-08-06T12:32:29.229Z,2.15
2018-08-06T12:34:57.957Z,2.47
2018-08-06T12:37:26.240Z,2.70
2018-08-06T12:39:54.849Z,2.95
2018-08-06T12:42:23.455Z,3.33
2018-08-06T12:44:52.085Z,3.30
2018-08-06T12:47:20.702Z,3.98
2018-08-06T12:49:49.380Z,4.40
2018-08-06T12:52:18.071Z,4.60
2018-08-06T12:54:46.692Z,5.25
2018-08-06T12:57:15.426Z,5.67
2018-08-06T12:59:44.062Z,5.20
2018-08-06T13:02:12.331Z,6.03
2018-08-06T13:04:40.630Z,5.35
2018-08-06T13:07:09.395Z,5.72
2018-08-06T13:09:38.113Z,6.05
2018-08-06T13:12:06.814Z,6.37
2018-08-06T13:14:35.485Z,6.65
2018-08-06T13:17:04.112Z,6.45
2018-08-06T13:19:32.801Z,7.20
2018-08-06T13:22:01.430Z,7.33
2018-08-06T13:24:30.060Z,7.50
2018-08-06T13:26:58.712Z,7.92
2018-08-06T13:29:27.422Z,8.90
2018-08-06T13:31:56.109Z,8.13
2018-08-06T13:34:24.755Z,8.00
2018-08-06T13:36:53.128Z,7.92
2018-08-06T13:39:21.691Z,8.00
2018-08-06T13:41:50.315Z,8.18
2018-08-06T13:44:19.111Z,8.40
2018-08-06T13:46:47.749Z,7.78
2018-08-06T13:49:16.423Z,7.85
2018-08-06T13:51:45.072Z,8.43
2018-08-06T13:54:13.691Z,7.90
2018-08-06T13:56:42.341Z,49.90
2018-08-06T13:59:11.077Z,9.30
2018-08-06T14:01:39.635Z,9.05
2018-08-06T14:04:08.261Z,9.45
2018-08-06T14:06:39.181Z,9.58
2018-08-06T14:09:13.018Z,9.50
2018-08-06T14:11:44.867Z,9.63
2018-08-06T14:14:17.749Z,9.78
2018-08-06T14:16:48.626Z,10.45
2018-08-06T14:19:21.933Z,10.40
2018-08-06T14:21:53.440Z,10.50
2018-08-06T14:24:27.754Z,10.90
2018-08-06T14:27:00.707Z,11.28
2018-08-06T14:29:30.776Z,11.18
2018-08-06T14:32:01.729Z,11.73
2018-08-06T14:34:37.566Z,11.70
2018-08-06T14:37:08.213Z,11.30
2018-08-06T14:39:41.217Z,11.28
2018-08-06T14:42:13.105Z,10.05
2018-08-06T14:44:43.952Z,10.48
2018-08-06T14:47:12.538Z,10.40
2018-08-06T14:49:41.277Z,10.78
2018-08-06T14:52:11.079Z,11.03
2018-08-06T14:54:40.599Z,11.05
2018-08-06T14:57:13.889Z,12.00
2018-08-06T14:59:45.647Z,11.40
2018-08-06T15:02:18.053Z,11.08
2018-08-06T15:04:52.085Z,10.75
2018-08-06T15:07:24.685Z,10.30
2018-08-06T15:09:57.268Z,9.38
2018-08-06T15:12:28.571Z,8.50
2018-08-06T15:14:59.069Z,8.10
2018-08-06T15:17:32.348Z,7.62
2018-08-06T15:20:02.789Z,7.03
2018-08-06T15:22:35.379Z,7.22
2018-08-06T15:25:07.530Z,6.85
2018-08-06T15:27:39.325Z,6.22
2018-08-06T15:30:12.505Z,6.24
2018-08-06T15:32:42.907Z,6.27
2018-08-06T15:35:14.948Z,5.87
2018-08-06T15:37:46.433Z,5.50
2018-08-06T15:40:22.887Z,5.07
2018-08-06T15:42:54.764Z,4.95
2018-08-06T15:45:26.333Z,5.00
2018-08-06T15:47:57.954Z,4.50
2018-08-06T15:50:27.847Z,4.40
2018-08-06T15:52:58.571Z,4.08
2018-08-06T15:55:30.105Z,3.80
2018-08-06T15:58:00.202Z,4.30
2018-08-06T16:00:28.436Z,4.22
2018-08-06T16:02:57.124Z,3.60
2018-08-06T16:05:25.780Z,3.60
2018-08-06T16:07:54.461Z,3.45
2018-08-06T16:10:23.142Z,3.40
2018-08-06T16:12:51.721Z,3.33
2018-08-06T16:15:20.348Z,3.13
2018-08-06T16:17:48.999Z,3.02
2018-08-06T16:20:18.595Z,3.20
2018-08-06T16:22:47.277Z,3.05
2018-08-06T16:25:16.166Z,3.20
2018-08-06T16:27:44.806Z,3.25
2018-08-06T16:30:24.629Z,3.87
2018-08-06T16:32:56.364Z,3.25
2018-08-06T16:35:27.697Z,3.62
2018-08-06T16:37:59.858Z,3.25
2018-08-06T16:40:32.081Z,3.35
2018-08-06T16:43:04.106Z,3.40
2018-08-06T16:45:35.536Z,3.22
2018-08-06T16:48:06.708Z,3.00
2018-08-06T16:50:38.672Z,2.75
2018-08-06T16:53:10.610Z,3.17
2018-08-06T16:55:44.385Z,10.05
2018-08-06T16:58:16.294Z,2.77
2018-08-06T17:00:54.374Z,2.60
2018-08-06T17:03:26.019Z,2.47
2018-08-06T17:05:59.603Z,2.60
2018-08-06T17:08:31.140Z,2.72
2018-08-06T17:11:03.052Z,2.67
2018-08-06T17:13:31.254Z,2.80
2018-08-06T17:15:59.902Z,2.75
2018-08-06T17:18:28.606Z,2.47
2018-08-06T17:20:57.293Z,2.80
2018-08-06T17:23:26.099Z,2.42
2018-08-06T17:25:54.892Z,2.65
2018-08-06T17:28:23.531Z,2.50
2018-08-06T17:30:52.158Z,2.52
2018-08-06T17:33:20.788Z,2.58
2018-08-06T17:35:49.433Z,3.00
2018-08-06T17:38:18.131Z,2.30
2018-08-06T17:40:46.806Z,2.50
2018-08-06T17:43:15.404Z,2.45
2018-08-06T17:45:44.119Z,2.27
2018-08-06T17:48:12.741Z,3.37
2018-08-06T17:50:41.369Z,2.47
2018-08-06T17:53:10.044Z,4.20
2018-08-06T17:55:38.470Z,2.17
2018-08-06T17:58:07.558Z,2.30
2018-08-06T18:00:39.367Z,2.27
2018-08-06T18:03:08.026Z,2.52
2018-08-06T18:05:36.684Z,2.80
2018-08-06T18:08:04.984Z,3.08
2018-08-06T18:10:33.780Z,3.35
2018-08-06T18:13:02.402Z,2.80
2018-08-06T18:15:30.788Z,3.15
2018-08-06T18:17:59.085Z,3.50
2018-08-06T18:20:27.724Z,3.35
2018-08-06T18:22:56.386Z,2.52
2018-08-06T18:25:24.997Z,2.90
2018-08-06T18:27:53.672Z,2.85
2018-08-06T18:30:23.022Z,2.60
2018-08-06T18:32:51.651Z,3.08
2018-08-06T18:35:20.630Z,2.87
2018-08-06T18:37:54.555Z,2.98
2018-08-06T18:40:35.546Z,2.90
2018-08-06T18:43:33.772Z,2.83
2018-08-06T18:46:18.398Z,2.67
2018-08-06T18:48:57.525Z,2.70
2018-08-06T18:51:31.489Z,2.40
2018-08-06T19:03:52.074Z,2.50
2018-08-06T19:06:20.336Z,2.60
2018-08-06T19:08:51.062Z,2.72
2018-08-06T19:11:19.318Z,2.90
2018-08-06T19:14:05.462Z,2.90
2018-08-06T19:16:35.323Z,2.70
2018-08-06T19:19:20.058Z,3.00
2018-08-06T19:21:48.708Z,3.00
2018-08-06T19:24:34.904Z,6.03
2018-08-06T19:27:03.510Z,4.45
2018-08-06T19:29:32.130Z,2.85
2018-08-06T19:32:00.972Z,3.17
2018-08-06T19:34:29.636Z,2.83
2018-08-06T19:37:15.950Z,2.70
2018-08-06T19:39:44.241Z,3.02
2018-08-06T19:42:12.845Z,3.00
2018-08-06T19:44:41.455Z,2.55
2018-08-06T19:47:10.050Z,2.95
2018-08-06T19:50:00.889Z,2.37
2018-08-06T19:52:29.492Z,3.00
2018-08-06T19:55:20.761Z,2.70
2018-08-06T19:57:51.719Z,2.83
2018-08-06T20:00:26.416Z,2.80
2018-08-06T20:03:00.677Z,2.92
2018-08-06T20:05:31.094Z,2.50
2018-08-06T20:08:00.251Z,2.95
2018-08-06T20:10:32.813Z,2.77
2018-08-06T20:13:05.392Z,2.85
2018-08-06T20:15:36.722Z,2.72
2018-08-06T20:18:08.102Z,2.72
2018-08-06T20:20:40.271Z,2.72
2018-08-06T20:23:10.546Z,2.62
2018-08-06T20:25:44.920Z,3.02
2018-08-06T20:28:14.987Z,3.08
2018-08-06T20:30:47.411Z,2.65
2018-08-06T20:33:19.328Z,2.25
2018-08-06T20:35:51.369Z,3.17
2018-08-06T20:38:24.191Z,2.80
2018-08-06T20:40:56.411Z,3.05
2018-08-06T20:43:28.139Z,2.70
2018-08-06T20:46:02.172Z,2.75
2018-08-06T20:48:33.228Z,3.08
2018-08-06T20:51:01.500Z,2.70
2018-08-06T20:53:31.470Z,2.83
2018-08-06T20:56:03.417Z,3.37
2018-08-06T20:58:33.855Z,2.65
2018-08-06T21:01:05.508Z,2.40
2018-08-06T21:03:37.719Z,2.52
2018-08-06T21:06:06.873Z,2.72
2018-08-06T21:08:35.640Z,2.58
2018-08-06T21:11:07.685Z,2.50
2018-08-06T21:13:37.424Z,2.85
2018-08-06T21:16:11.517Z,3.27
2018-08-06T21:18:42.448Z,2.90
2018-08-06T21:21:14.708Z,2.70
2018-08-06T21:23:46.540Z,3.15
2018-08-06T21:26:17.433Z,2.80
2018-08-06T21:28:47.756Z,2.75
2018-08-06T21:31:17.899Z,2.87
2018-08-06T21:33:46.333Z,2.55
2018-08-06T21:36:14.930Z,2.87
2018-08-06T21:38:44.915Z,3.10
2018-08-06T21:41:14.648Z,2.90
2018-08-06T21:43:42.879Z,2.50
2018-08-06T21:46:11.895Z,3.00
2018-08-06T21:48:43.259Z,2.47
2018-08-06T21:51:15.047Z,2.92
2018-08-06T21:53:44.517Z,3.27
2018-08-06T21:56:13.801Z,2.75
2018-08-06T21:58:43.181Z,2.80
2018-08-06T22:01:13.068Z,2.50
2018-08-06T22:03:42.587Z,2.87
2018-08-06T22:06:10.701Z,2.95
2018-08-06T22:08:39.391Z,3.30
2018-08-06T22:11:08.937Z,3.25
2018-08-06T22:13:37.576Z,3.10
2018-08-06T22:16:07.841Z,3.00
2018-08-06T22:18:39.045Z,2.83
2018-08-06T22:21:08.473Z,2.98
2018-08-06T22:23:37.093Z,2.95
2018-08-06T22:26:05.711Z,3.47
2018-08-06T22:28:34.304Z,2.55
2018-08-06T22:31:04.436Z,3.50
2018-08-06T22:33:33.398Z,2.72
2018-08-06T22:36:02.471Z,3.63
2018-08-06T22:38:30.885Z,2.95
2018-08-06T22:41:00.015Z,3.20
2018-08-06T22:43:28.527Z,3.37
2018-08-06T22:45:57.385Z,2.70
2018-08-06T22:48:25.999Z,3.27
2018-08-06T22:50:57.093Z,2.90
2018-08-06T22:53:26.647Z,2.47
2018-08-06T22:56:05.471Z,3.67
2018-08-06T22:58:34.752Z,3.30
2018-08-06T23:01:05.685Z,3.10
2018-08-06T23:03:36.413Z,3.12
2018-08-06T23:06:07.932Z,3.33
2018-08-06T23:08:39.924Z,3.17
2018-08-06T23:11:11.854Z,3.00
2018-08-06T23:13:41.869Z,3.10
2018-08-06T23:16:13.849Z,3.25
2018-08-06T23:18:43.961Z,3.75
2018-08-06T23:21:15.333Z,3.10
2018-08-06T23:23:45.768Z,3.45
2018-08-06T23:26:15.763Z,3.50
2018-08-06T23:28:45.848Z,3.25
2018-08-06T23:31:15.048Z,4.00
2018-08-06T23:33:44.239Z,3.20
2018-08-06T23:36:13.659Z,2.85
2018-08-06T23:38:43.169Z,3.50
2018-08-06T23:41:13.466Z,3.20
2018-08-06T23:43:42.010Z,3.05
2018-08-06T23:46:12.413Z,3.37
2018-08-06T23:48:41.491Z,3.27
2018-08-06T23:51:10.108Z,2.77
2018-08-06T23:53:43.245Z,3.00
2018-08-06T23:56:12.085Z,3.40
2018-08-06T23:58:41.187Z,3.62
